Livona, North Dakota
Current Conditions -  °F | °C
As of 11:52 PM on Sunday 25 Jan 2015 (Local Time) from KBIS Reporting Station
Clear Clear  
Wind Chill: 30°   Ceiling: Unl
Heat Index: 34°   Visibility: 10mi
Dew Point: 30°   Wind: 5mph
Humidity: 85%   Direction: 230°SW
Pressure: 29.77"   Gusts: NA
Location:  46.7287°N, 100.616°W
Report Text: KBIS 260552Z AUTO 23004KT 10SM CLR 01/M01 A2977 RMK AO2 SLP098 T00111011 10028 20006 400330006 56015
Loading
Personal Weather Stations






























Interactive Weather Map New forecast layout! Learn more

10-Day Weather Forecast

Advertisements
Track Severe Weather on mobile